Time;durP1;ratioP1;P1;durP2;ratioP2;P2;SDS_P1;SDS_P2;PMS_P1;PMS_P2;Temp;Humidity;BMP_temperature;BMP_pressure;BME280_temperature;BME280_humidity;BME280_pressure;Samples;Min_cycle;Max_cycle;Signal;HPM_P1;HPM_P2
2022/09/18 00:01:15;;;;;;;4.50;1.67;;;;;;;;;;5031947;28;20083;-58
2022/09/18 00:03:41;;;;;;;5.65;2.10;;;;;;;;;;5027595;28;20097;-57
2022/09/18 00:06:11;;;;;;;5.85;1.75;;;;;;;;;;5027356;28;20108;-57
2022/09/18 00:08:38;;;;;;;7.35;1.70;;;;;;;;;;5029627;28;20084;-58
2022/09/18 00:11:05;;;;;;;9.52;2.63;;;;;;;;;;5028691;28;20032;-57
2022/09/18 00:13:32;;;;;;;6.50;1.75;;;;;;;;;;5026522;28;20029;-58
2022/09/18 00:15:58;;;;;;;6.13;1.65;;;;;;;;;;5027554;28;20473;-57
2022/09/18 00:18:24;;;;;;;5.45;1.90;;;;;;;;;;5027109;28;20064;-57
2022/09/18 00:20:50;;;;;;;4.03;1.63;;;;;;;;;;5028874;28;20021;-58
2022/09/18 00:23:15;;;;;;;4.07;1.65;;;;;;;;;;5031663;28;20028;-57
2022/09/18 00:25:40;;;;;;;5.57;1.80;;;;;;;;;;5026957;28;20049;-56
2022/09/18 00:28:06;;;;;;;6.65;1.85;;;;;;;;;;5028540;28;20065;-58
2022/09/18 00:30:31;;;;;;;6.53;1.60;;;;;;;;;;5027793;28;20033;-57
2022/09/18 00:32:57;;;;;;;4.85;1.65;;;;;;;;;;5027325;28;20037;-57
2022/09/18 00:35:22;;;;;;;4.18;1.90;;;;;;;;;;5027493;28;20044;-58
2022/09/18 00:37:48;;;;;;;4.93;1.80;;;;;;;;;;5030014;28;20151;-58
2022/09/18 00:40:15;;;;;;;8.73;2.15;;;;;;;;;;5027211;28;20033;-57
2022/09/18 00:42:40;;;;;;;4.70;1.50;;;;;;;;;;5027217;28;20482;-58
2022/09/18 00:45:07;;;;;;;5.25;1.80;;;;;;;;;;5026969;28;20037;-58
2022/09/18 00:47:51;;;;;;;5.68;1.42;;;;;;;;;;5027964;28;20033;-58
2022/09/18 00:50:22;;;;;;;3.15;1.83;;;;;;;;;;5025338;28;20488;-58
2022/09/18 00:52:58;;;;;;;9.70;1.95;;;;;;;;;;5026566;28;20394;-57
2022/09/18 00:55:29;;;;;;;6.60;1.77;;;;;;;;;;5023089;28;20057;-57
2022/09/18 00:57:57;;;;;;;5.93;1.95;;;;;;;;;;5026605;28;20391;-58
2022/09/18 01:00:23;;;;;;;4.25;1.50;;;;;;;;;;5027964;28;20112;-58
2022/09/18 01:02:49;;;;;;;4.65;1.90;;;;;;;;;;5026754;28;20161;-57
2022/09/18 01:05:21;;;;;;;4.32;1.83;;;;;;;;;;5030802;28;20036;-58
2022/09/18 01:07:55;;;;;;;2.58;1.70;;;;;;;;;;5026660;28;20036;-57
2022/09/18 01:10:49;;;;;;;5.65;1.92;;;;;;;;;;5026705;28;20038;-58
2022/09/18 01:13:36;;;;;;;8.77;1.95;;;;;;;;;;5026677;28;20056;-57
2022/09/18 01:16:07;;;;;;;4.13;1.60;;;;;;;;;;5027950;28;20371;-58
2022/09/18 01:18:57;;;;;;;4.00;1.50;;;;;;;;;;5024486;28;20025;-57
2022/09/18 01:21:34;;;;;;;8.88;2.35;;;;;;;;;;5026370;28;20034;-57
2022/09/18 01:24:17;;;;;;;3.10;1.73;;;;;;;;;;5027303;28;20033;-57
2022/09/18 01:26:53;;;;;;;2.92;1.60;;;;;;;;;;5026226;28;20025;-57
2022/09/18 01:29:29;;;;;;;4.18;2.00;;;;;;;;;;5026313;28;20038;-58
2022/09/18 01:32:10;;;;;;;2.97;1.88;;;;;;;;;;5029480;28;20036;-57
2022/09/18 01:34:51;;;;;;;3.55;1.90;;;;;;;;;;5025978;28;20029;-58
2022/09/18 01:37:35;;;;;;;4.95;1.75;;;;;;;;;;5026214;28;20045;-57
2022/09/18 01:40:12;;;;;;;3.80;1.90;;;;;;;;;;5028764;28;20418;-58
2022/09/18 01:42:39;;;;;;;3.03;1.50;;;;;;;;;;5029723;28;20384;-57
2022/09/18 01:45:09;;;;;;;7.18;2.10;;;;;;;;;;5032951;28;20028;-57
2022/09/18 01:47:43;;;;;;;5.40;1.75;;;;;;;;;;5029890;28;20156;-58
2022/09/18 01:50:11;;;;;;;5.55;1.70;;;;;;;;;;5030793;28;20506;-57
2022/09/18 01:52:42;;;;;;;1.98;1.63;;;;;;;;;;5030129;28;20025;-58
2022/09/18 01:55:14;;;;;;;2.42;2.20;;;;;;;;;;5032295;28;20061;-58
2022/09/18 01:57:45;;;;;;;3.45;1.70;;;;;;;;;;5030854;28;20502;-58
2022/09/18 02:00:12;;;;;;;5.68;1.83;;;;;;;;;;5032021;28;20040;-58
2022/09/18 02:03:01;;;;;;;5.15;1.80;;;;;;;;;;5028762;28;20277;-58
2022/09/18 02:05:30;;;;;;;4.93;1.67;;;;;;;;;;5030761;28;20037;-57
2022/09/18 02:08:06;;;;;;;3.95;2.00;;;;;;;;;;5029180;28;20035;-58
2022/09/18 02:10:34;;;;;;;3.85;1.65;;;;;;;;;;5031347;28;20034;-58
2022/09/18 02:13:02;;;;;;;3.95;1.90;;;;;;;;;;5032860;28;20029;-57
2022/09/18 02:15:31;;;;;;;2.72;1.65;;;;;;;;;;5030537;28;20026;-58
2022/09/18 02:18:03;;;;;;;5.40;1.92;;;;;;;;;;5030626;28;20372;-57
2022/09/18 02:20:30;;;;;;;7.03;1.80;;;;;;;;;;5029316;28;20468;-58
2022/09/18 02:23:01;;;;;;;3.08;1.70;;;;;;;;;;5028712;28;20022;-57
2022/09/18 02:25:36;;;;;;;6.10;1.77;;;;;;;;;;5029572;28;20037;-57
2022/09/18 02:28:04;;;;;;;4.00;1.75;;;;;;;;;;5030925;28;20030;-57
2022/09/18 02:30:30;;;;;;;2.92;2.13;;;;;;;;;;5030831;28;20088;-58
2022/09/18 02:32:56;;;;;;;4.05;1.60;;;;;;;;;;5030110;28;20097;-57
2022/09/18 02:35:28;;;;;;;4.38;1.90;;;;;;;;;;5030047;28;20108;-58
2022/09/18 02:37:54;;;;;;;3.10;1.52;;;;;;;;;;5029896;28;20340;-58
2022/09/18 02:40:49;;;;;;;3.00;2.00;;;;;;;;;;5030807;28;20044;-58
2022/09/18 02:43:42;;;;;;;5.10;1.80;;;;;;;;;;5028027;28;20075;-57
2022/09/18 02:46:21;;;;;;;4.28;1.70;;;;;;;;;;5029264;28;20029;-57
2022/09/18 02:48:55;;;;;;;;;;;;;;;;;;5031107;28;20380;-57
2022/09/18 02:51:35;;;;;;;5.15;2.22;;;;;;;;;;5025782;28;19995;-57
2022/09/18 02:54:29;;;;;;;5.35;1.80;;;;;;;;;;5031002;28;20030;-57
2022/09/18 02:57:15;;;;;;;3.53;1.70;;;;;;;;;;5034909;28;20052;-58
2022/09/18 02:59:55;;;;;;;4.63;1.73;;;;;;;;;;5031312;28;20021;-58
2022/09/18 03:02:21;;;;;;;3.63;1.95;;;;;;;;;;5029173;28;20443;-58
2022/09/18 03:04:48;;;;;;;4.55;1.80;;;;;;;;;;5030775;28;20029;-58
2022/09/18 03:07:14;;;;;;;4.63;1.77;;;;;;;;;;5029469;28;20048;-58
2022/09/18 03:09:40;;;;;;;7.10;2.03;;;;;;;;;;5031228;28;20116;-58
2022/09/18 03:12:06;;;;;;;4.88;1.65;;;;;;;;;;5029863;28;20405;-58
2022/09/18 03:14:31;;;;;;;3.22;1.48;;;;;;;;;;5029674;28;20036;-58
2022/09/18 03:16:56;;;;;;;3.03;2.00;;;;;;;;;;5029496;28;20032;-58
2022/09/18 03:19:22;;;;;;;7.93;2.28;;;;;;;;;;5028914;28;20314;-58
2022/09/18 03:21:49;;;;;;;7.70;1.90;;;;;;;;;;5029309;28;20017;-58
2022/09/18 03:24:15;;;;;;;5.95;2.05;;;;;;;;;;5028683;28;20122;-59
2022/09/18 03:26:40;;;;;;;5.65;2.05;;;;;;;;;;5029200;28;20045;-59
2022/09/18 03:29:07;;;;;;;5.25;1.98;;;;;;;;;;5024834;28;20029;-59
2022/09/18 03:31:33;;;;;;;4.70;2.70;;;;;;;;;;5037210;28;20032;-59
2022/09/18 03:33:58;;;;;;;3.42;2.25;;;;;;;;;;5029714;28;20116;-59
2022/09/18 03:36:24;;;;;;;3.33;1.70;;;;;;;;;;5028768;28;20109;-59
2022/09/18 03:38:49;;;;;;;2.67;2.13;;;;;;;;;;5029615;28;20029;-59
2022/09/18 03:41:14;;;;;;;4.60;2.10;;;;;;;;;;5026122;28;20060;-59
2022/09/18 03:43:40;;;;;;;5.30;1.80;;;;;;;;;;5028736;28;20076;-58
2022/09/18 03:46:06;;;;;;;5.28;2.00;;;;;;;;;;5029263;28;20080;-58
2022/09/18 03:48:31;;;;;;;4.75;2.15;;;;;;;;;;5029144;28;20026;-58
2022/09/18 03:50:57;;;;;;;6.55;2.05;;;;;;;;;;5028757;28;20116;-58
2022/09/18 03:53:22;;;;;;;2.90;2.17;;;;;;;;;;5029096;28;20112;-58
2022/09/18 03:55:49;;;;;;;5.78;2.30;;;;;;;;;;5029610;28;20041;-58
2022/09/18 03:58:14;;;;;;;5.22;2.40;;;;;;;;;;5029732;28;20456;-58
2022/09/18 04:00:40;;;;;;;3.90;2.30;;;;;;;;;;5029192;28;20057;-57
2022/09/18 04:03:06;;;;;;;8.55;2.95;;;;;;;;;;5026596;28;20060;-58
2022/09/18 04:05:32;;;;;;;6.65;3.08;;;;;;;;;;5028673;28;20045;-58
2022/09/18 04:07:58;;;;;;;5.47;2.60;;;;;;;;;;5033045;28;20509;-58
2022/09/18 04:10:25;;;;;;;4.32;2.50;;;;;;;;;;5034050;28;20052;-57
2022/09/18 04:12:50;;;;;;;6.50;2.70;;;;;;;;;;5027622;28;20036;-58
2022/09/18 04:15:16;;;;;;;5.43;2.55;;;;;;;;;;5028622;28;20032;-58
2022/09/18 04:17:42;;;;;;;6.47;2.58;;;;;;;;;;5028551;28;20033;-58
2022/09/18 04:20:08;;;;;;;7.18;3.10;;;;;;;;;;5028891;28;20495;-58
2022/09/18 04:22:34;;;;;;;4.18;2.50;;;;;;;;;;5027630;28;20371;-58
2022/09/18 04:25:00;;;;;;;4.40;2.70;;;;;;;;;;5030049;28;20032;-58
2022/09/18 04:27:25;;;;;;;4.30;2.47;;;;;;;;;;5027980;28;20033;-57
2022/09/18 04:29:51;;;;;;;7.80;2.50;;;;;;;;;;5029280;28;20025;-58
2022/09/18 04:32:16;;;;;;;3.90;2.75;;;;;;;;;;5027792;28;20036;-57
2022/09/18 04:34:42;;;;;;;4.50;2.70;;;;;;;;;;5028231;28;20207;-57
2022/09/18 04:37:07;;;;;;;4.18;2.60;;;;;;;;;;5027076;28;20018;-58
2022/09/18 04:39:33;;;;;;;6.47;2.53;;;;;;;;;;5029185;28;20099;-58
2022/09/18 04:41:59;;;;;;;5.30;2.75;;;;;;;;;;5021388;28;20057;-58
2022/09/18 04:44:24;;;;;;;3.58;2.40;;;;;;;;;;5031058;28;20261;-58
2022/09/18 04:46:50;;;;;;;3.38;2.60;;;;;;;;;;5028873;28;20526;-58
2022/09/18 04:49:15;;;;;;;4.97;2.67;;;;;;;;;;5028363;28;20025;-57
2022/09/18 04:51:40;;;;;;;4.72;2.72;;;;;;;;;;5032614;28;20509;-58
2022/09/18 04:54:06;;;;;;;4.07;2.50;;;;;;;;;;5027856;28;20536;-58
2022/09/18 04:56:31;;;;;;;3.58;2.28;;;;;;;;;;5022558;28;20406;-58
2022/09/18 04:58:58;;;;;;;3.33;2.45;;;;;;;;;;5027517;28;20041;-58
2022/09/18 05:01:24;;;;;;;5.47;2.38;;;;;;;;;;5029882;28;20103;-58
2022/09/18 05:03:49;;;;;;;4.15;2.35;;;;;;;;;;5028672;28;20476;-62
2022/09/18 05:06:15;;;;;;;5.07;2.60;;;;;;;;;;5027033;28;20359;-62
2022/09/18 05:08:40;;;;;;;3.83;2.47;;;;;;;;;;5028026;28;20430;-62
2022/09/18 05:11:06;;;;;;;2.83;2.38;;;;;;;;;;5028617;28;20025;-62
2022/09/18 05:13:31;;;;;;;5.38;3.20;;;;;;;;;;5026339;28;20065;-62
2022/09/18 05:15:57;;;;;;;4.93;2.45;;;;;;;;;;5030194;28;20259;-62
2022/09/18 05:18:23;;;;;;;6.18;2.33;;;;;;;;;;5035573;28;20026;-62
2022/09/18 05:20:48;;;;;;;3.00;2.55;;;;;;;;;;5032130;28;20075;-62
2022/09/18 05:23:14;;;;;;;6.13;2.60;;;;;;;;;;5031147;28;20040;-62
2022/09/18 05:25:41;;;;;;;5.13;2.42;;;;;;;;;;5031643;28;20052;-62
2022/09/18 05:28:08;;;;;;;5.57;2.53;;;;;;;;;;5034776;28;20032;-62
2022/09/18 05:30:33;;;;;;;4.53;2.60;;;;;;;;;;5031122;28;20033;-61
2022/09/18 05:33:01;;;;;;;3.25;2.60;;;;;;;;;;5031456;28;20033;-61
2022/09/18 05:35:29;;;;;;;4.38;2.35;;;;;;;;;;5031951;28;20128;-61
2022/09/18 05:37:55;;;;;;;4.50;2.50;;;;;;;;;;5031228;28;20545;-61
2022/09/18 05:40:25;;;;;;;4.38;2.25;;;;;;;;;;5031893;28;20070;-60
2022/09/18 05:42:54;;;;;;;3.25;2.50;;;;;;;;;;5031512;28;20068;-60
2022/09/18 05:45:20;;;;;;;4.03;2.63;;;;;;;;;;5030953;28;20053;-61
2022/09/18 05:47:59;;;;;;;2.88;2.60;;;;;;;;;;5031217;28;20048;-61
2022/09/18 05:50:27;;;;;;;3.40;2.60;;;;;;;;;;5031171;28;20116;-62
2022/09/18 05:53:02;;;;;;;5.35;2.67;;;;;;;;;;5031400;28;20418;-61
2022/09/18 05:55:29;;;;;;;6.85;2.90;;;;;;;;;;5030932;28;20033;-61
2022/09/18 05:57:55;;;;;;;3.53;2.40;;;;;;;;;;5033088;28;20025;-61
2022/09/18 06:00:22;;;;;;;7.38;2.75;;;;;;;;;;5036938;28;20435;-61
2022/09/18 06:02:56;;;;;;;4.30;2.45;;;;;;;;;;5030067;28;20045;-61
2022/09/18 06:05:22;;;;;;;3.88;2.20;;;;;;;;;;5030356;28;20039;-60
2022/09/18 06:07:48;;;;;;;3.03;2.60;;;;;;;;;;5030620;28;20032;-61
2022/09/18 06:10:13;;;;;;;9.32;3.03;;;;;;;;;;5027668;28;20492;-59
2022/09/18 06:12:39;;;;;;;7.78;2.58;;;;;;;;;;5025321;28;20510;-62
2022/09/18 06:15:05;;;;;;;5.15;2.50;;;;;;;;;;5029378;28;20108;-62
2022/09/18 06:17:31;;;;;;;6.07;2.90;;;;;;;;;;5027155;28;20116;-62
2022/09/18 06:19:56;;;;;;;6.72;2.50;;;;;;;;;;5028450;28;20108;-62
2022/09/18 06:22:22;;;;;;;8.15;2.60;;;;;;;;;;5027002;28;20391;-62
2022/09/18 06:24:47;;;;;;;4.63;2.90;;;;;;;;;;5028456;28;20032;-62
2022/09/18 06:27:12;;;;;;;7.25;2.92;;;;;;;;;;5027697;28;20040;-62
2022/09/18 06:29:38;;;;;;;5.28;2.83;;;;;;;;;;5029026;28;20352;-61
2022/09/18 06:32:03;;;;;;;4.05;3.00;;;;;;;;;;5027620;28;20060;-61
2022/09/18 06:34:28;;;;;;;6.72;3.03;;;;;;;;;;5027756;28;20502;-61
2022/09/18 06:36:54;;;;;;;6.35;3.00;;;;;;;;;;5028497;28;20482;-61
2022/09/18 06:39:19;;;;;;;4.60;3.78;;;;;;;;;;5029852;28;20037;-61
2022/09/18 06:41:45;;;;;;;7.88;4.22;;;;;;;;;;5030730;28;20025;-61
2022/09/18 06:44:10;;;;;;;7.65;3.35;;;;;;;;;;5031212;28;20483;-61
2022/09/18 06:46:36;;;;;;;7.53;3.53;;;;;;;;;;5030303;28;20086;-61
2022/09/18 06:49:02;;;;;;;5.57;3.20;;;;;;;;;;5031470;28;20021;-61
2022/09/18 06:51:28;;;;;;;4.32;2.40;;;;;;;;;;5030657;28;20394;-61
2022/09/18 06:53:53;;;;;;;4.18;2.60;;;;;;;;;;5029397;28;20041;-61
2022/09/18 06:56:19;;;;;;;4.75;2.70;;;;;;;;;;5030976;28;20029;-56
2022/09/18 06:58:44;;;;;;;8.90;3.13;;;;;;;;;;5030379;28;20025;-55
2022/09/18 07:01:09;;;;;;;5.32;3.13;;;;;;;;;;5033855;28;20021;-60
2022/09/18 07:03:35;;;;;;;6.20;3.10;;;;;;;;;;5029102;28;20029;-62
2022/09/18 07:06:00;;;;;;;6.68;2.80;;;;;;;;;;5029709;28;20703;-61
2022/09/18 07:08:25;;;;;;;7.40;2.80;;;;;;;;;;5030622;28;20040;-61
2022/09/18 07:10:51;;;;;;;4.90;2.80;;;;;;;;;;5029758;28;20030;-61
2022/09/18 07:13:16;;;;;;;15.50;5.53;;;;;;;;;;5029818;28;20036;-54
2022/09/18 07:15:46;;;;;;;7.75;2.88;;;;;;;;;;5030750;28;20041;-62
2022/09/18 07:18:11;;;;;;;7.00;3.42;;;;;;;;;;5031497;28;20135;-61
2022/09/18 07:20:36;;;;;;;4.97;2.65;;;;;;;;;;5029682;28;20033;-61
2022/09/18 07:23:02;;;;;;;2.80;2.50;;;;;;;;;;5029068;28;20030;-61
2022/09/18 07:25:30;;;;;;;4.10;2.70;;;;;;;;;;5028987;28;20496;-61
2022/09/18 07:28:01;;;;;;;6.60;3.13;;;;;;;;;;5029796;28;20029;-61
2022/09/18 07:30:26;;;;;;;5.38;2.70;;;;;;;;;;5029135;28;20071;-61
2022/09/18 07:32:51;;;;;;;5.32;2.90;;;;;;;;;;5029235;28;20057;-60
2022/09/18 07:35:17;;;;;;;8.00;2.50;;;;;;;;;;5028914;28;20037;-60
2022/09/18 07:37:42;;;;;;;4.95;2.92;;;;;;;;;;5028955;28;20104;-60
2022/09/18 07:40:09;;;;;;;5.65;3.38;;;;;;;;;;5030689;28;20025;-60
2022/09/18 07:42:34;;;;;;;7.47;3.03;;;;;;;;;;5029977;28;20112;-60
2022/09/18 07:45:00;;;;;;;8.20;2.42;;;;;;;;;;5029534;28;20171;-60
2022/09/18 07:47:26;;;;;;;7.38;3.35;;;;;;;;;;5029386;28;20037;-60
2022/09/18 07:49:52;;;;;;;3.45;2.80;;;;;;;;;;5028526;28;20033;-60
2022/09/18 07:52:17;;;;;;;4.10;2.92;;;;;;;;;;5030050;28;20033;-60
2022/09/18 07:54:43;;;;;;;3.70;3.00;;;;;;;;;;5030365;28;20044;-60
2022/09/18 07:57:08;;;;;;;4.30;2.70;;;;;;;;;;5030148;28;20021;-60
2022/09/18 07:59:34;;;;;;;6.65;3.30;;;;;;;;;;5029363;28;20061;-60
2022/09/18 08:01:59;;;;;;;8.55;4.30;;;;;;;;;;5029276;28;20047;-62
2022/09/18 08:04:25;;;;;;;9.65;4.07;;;;;;;;;;5030391;28;20491;-60
2022/09/18 08:06:54;;;;;;;4.50;2.45;;;;;;;;;;5029100;28;20030;-60
2022/09/18 08:09:20;;;;;;;8.38;4.63;;;;;;;;;;5030186;28;20033;-60
2022/09/18 08:11:47;;;;;;;5.00;3.00;;;;;;;;;;5028673;28;20029;-60
2022/09/18 08:14:12;;;;;;;6.95;2.25;;;;;;;;;;5030205;28;20033;-60
2022/09/18 08:16:38;;;;;;;2.80;2.22;;;;;;;;;;5029505;28;20173;-60
2022/09/18 08:19:03;;;;;;;3.10;2.20;;;;;;;;;;5030654;28;20033;-60
2022/09/18 08:21:29;;;;;;;6.72;2.97;;;;;;;;;;5027948;28;20028;-61
2022/09/18 08:23:55;;;;;;;3.08;2.10;;;;;;;;;;5029491;28;20471;-60
2022/09/18 08:26:20;;;;;;;4.15;1.70;;;;;;;;;;5029486;28;20034;-60
2022/09/18 08:28:46;;;;;;;3.17;2.65;;;;;;;;;;5029023;28;20132;-61
2022/09/18 08:31:12;;;;;;;5.45;2.20;;;;;;;;;;5032537;28;20044;-60
2022/09/18 08:33:37;;;;;;;4.65;2.40;;;;;;;;;;5029019;28;20459;-60
2022/09/18 08:36:03;;;;;;;4.15;2.80;;;;;;;;;;5029228;28;20094;-60
2022/09/18 08:38:28;;;;;;;2.92;2.20;;;;;;;;;;5030777;28;20390;-60
2022/09/18 08:41:00;;;;;;;2.80;1.50;;;;;;;;;;5024032;28;20040;-60
2022/09/18 08:43:37;;;;;;;4.28;1.85;;;;;;;;;;5025619;28;20021;-60
2022/09/18 08:46:44;;;;;;;2.92;1.95;;;;;;;;;;5034222;28;20025;-60
2022/09/18 08:49:31;;;;;;;3.67;1.75;;;;;;;;;;5020064;28;20087;-60
2022/09/18 08:52:22;;;;;;;1.70;1.60;;;;;;;;;;5029251;28;20403;-60
2022/09/18 08:55:00;;;;;;;3.50;1.95;;;;;;;;;;5028282;28;20025;-60
2022/09/18 08:57:41;;;;;;;2.10;1.67;;;;;;;;;;5028638;28;20025;-60
2022/09/18 09:00:22;;;;;;;1.98;1.60;;;;;;;;;;5028857;28;20026;-60
2022/09/18 09:02:52;;;;;;;2.33;1.50;;;;;;;;;;5027220;28;20079;-61
2022/09/18 09:05:26;;;;;;;9.65;4.28;;;;;;;;;;5029379;28;20517;-61
2022/09/18 09:08:30;;;;;;;2.22;1.88;;;;;;;;;;5028724;28;20056;-60
2022/09/18 09:11:15;;;;;;;1.80;1.58;;;;;;;;;;5028162;28;20483;-61
2022/09/18 09:13:48;;;;;;;3.38;1.95;;;;;;;;;;5031012;28;20479;-60
2022/09/18 09:16:13;;;;;;;8.80;3.85;;;;;;;;;;5028817;28;20041;-61
2022/09/18 09:18:45;;;;;;;9.07;4.50;;;;;;;;;;5030577;28;20387;-60
2022/09/18 09:21:22;;;;;;;6.03;3.42;;;;;;;;;;5029508;28;20030;-60
2022/09/18 09:24:08;;;;;;;3.63;1.88;;;;;;;;;;5028587;28;20025;-60
2022/09/18 09:26:34;;;;;;;3.53;1.73;;;;;;;;;;5013647;28;20136;-60
2022/09/18 09:29:04;;;;;;;4.70;2.38;;;;;;;;;;5029380;28;20017;-60
2022/09/18 09:31:38;;;;;;;2.80;1.70;;;;;;;;;;5028251;28;20069;-60
2022/09/18 09:34:31;;;;;;;3.40;1.92;;;;;;;;;;5028716;28;20434;-60
2022/09/18 09:37:00;;;;;;;4.97;2.22;;;;;;;;;;5029147;28;20029;-60
2022/09/18 09:39:34;;;;;;;2.30;1.58;;;;;;;;;;5028418;28;20021;-60
2022/09/18 09:42:11;;;;;;;2.60;1.88;;;;;;;;;;5027062;28;20029;-60
2022/09/18 09:44:37;;;;;;;4.78;2.28;;;;;;;;;;5028343;28;20365;-60
2022/09/18 09:47:14;;;;;;;3.55;1.90;;;;;;;;;;5037174;28;20029;-60
2022/09/18 09:49:54;;;;;;;5.97;2.97;;;;;;;;;;5029511;28;20017;-60
2022/09/18 09:52:25;;;;;;;4.90;2.28;;;;;;;;;;5023106;28;20025;-60
2022/09/18 09:55:24;;;;;;;4.05;1.92;;;;;;;;;;5028360;28;20399;-60
2022/09/18 09:57:50;;;;;;;8.38;3.10;;;;;;;;;;5027509;28;20044;-60
2022/09/18 10:00:18;;;;;;;3.15;1.80;;;;;;;;;;5029035;28;20395;-60
2022/09/18 10:03:01;;;;;;;4.82;2.70;;;;;;;;;;5031066;28;20033;-59
2022/09/18 10:05:38;;;;;;;8.13;2.83;;;;;;;;;;5032257;28;20040;-60
2022/09/18 10:08:12;;;;;;;4.72;1.70;;;;;;;;;;5031626;28;20025;-60
2022/09/18 10:10:39;;;;;;;5.38;2.05;;;;;;;;;;5031718;28;20029;-60
2022/09/18 10:13:09;;;;;;;4.70;1.77;;;;;;;;;;5033940;28;20025;-60
2022/09/18 10:15:42;;;;;;;3.80;1.70;;;;;;;;;;5030812;28;20025;-60
2022/09/18 10:18:20;;;;;;;6.05;2.00;;;;;;;;;;5063466;28;20040;-60
2022/09/18 10:20:49;;;;;;;5.20;1.98;;;;;;;;;;5031602;28;20025;-60
2022/09/18 10:23:30;;;;;;;4.03;1.90;;;;;;;;;;5030894;28;20609;-60
2022/09/18 10:25:58;;;;;;;6.95;1.90;;;;;;;;;;5025186;28;20029;-60
2022/09/18 10:28:30;;;;;;;4.30;2.08;;;;;;;;;;5031291;28;20033;-60
2022/09/18 10:31:00;;;;;;;6.68;2.55;;;;;;;;;;5031580;28;20100;-60
2022/09/18 10:33:51;;;;;;;5.35;2.22;;;;;;;;;;5031298;28;20025;-60
2022/09/18 10:36:31;;;;;;;7.55;2.58;;;;;;;;;;5022178;28;20030;-61
2022/09/18 10:38:58;;;;;;;3.97;1.88;;;;;;;;;;5031951;28;20499;-61
2022/09/18 10:41:23;;;;;;;4.97;2.00;;;;;;;;;;5026784;28;20036;-61
2022/09/18 10:44:22;;;;;;;9.80;2.00;;;;;;;;;;5031132;28;20025;-61
2022/09/18 10:46:57;;;;;;;5.65;2.10;;;;;;;;;;5029824;28;20057;-61
2022/09/18 10:49:33;;;;;;;4.22;1.98;;;;;;;;;;5026508;28;20021;-61
2022/09/18 10:52:40;;;;;;;6.50;1.70;;;;;;;;;;5031391;28;20038;-61
2022/09/18 10:55:06;;;;;;;4.57;1.70;;;;;;;;;;5037297;28;20053;-61
2022/09/18 10:57:35;;;;;;;12.55;4.75;;;;;;;;;;5035105;28;20304;-61
2022/09/18 11:00:29;;;;;;;5.22;1.83;;;;;;;;;;5031107;28;20412;-61
2022/09/18 11:03:11;;;;;;;2.53;1.70;;;;;;;;;;5027490;28;20041;-61
2022/09/18 11:05:57;;;;;;;3.63;1.50;;;;;;;;;;5029882;28;20033;-61
2022/09/18 11:08:35;;;;;;;4.95;1.42;;;;;;;;;;5031642;28;20025;-61
2022/09/18 11:11:05;;;;;;;7.18;2.33;;;;;;;;;;5026277;28;20026;-61
2022/09/18 11:13:31;;;;;;;3.85;1.52;;;;;;;;;;5030152;28;20037;-61
2022/09/18 11:16:01;;;;;;;5.75;1.60;;;;;;;;;;5030198;28;20427;-61
2022/09/18 11:18:29;;;;;;;6.57;3.85;;;;;;;;;;5033420;28;20052;-61
2022/09/18 11:20:56;;;;;;;8.73;4.35;;;;;;;;;;5030979;28;20029;-61
2022/09/18 11:23:28;;;;;;;7.28;4.70;;;;;;;;;;5030855;28;20083;-61
2022/09/18 11:26:20;;;;;;;7.15;2.80;;;;;;;;;;5030007;28;20494;-61
2022/09/18 11:29:17;;;;;;;5.45;2.80;;;;;;;;;;5030997;28;20387;-61
2022/09/18 11:31:47;;;;;;;4.93;1.90;;;;;;;;;;5029779;28;20151;-61
2022/09/18 11:34:21;;;;;;;4.85;2.90;;;;;;;;;;5030810;28;20411;-61
2022/09/18 11:36:50;;;;;;;2.83;2.05;;;;;;;;;;5031115;28;20057;-61
2022/09/18 11:39:22;;;;;;;5.50;1.30;;;;;;;;;;5023464;28;20151;-61
2022/09/18 11:41:49;;;;;;;3.85;1.42;;;;;;;;;;5030713;28;20025;-61
2022/09/18 11:44:21;;;;;;;2.80;1.70;;;;;;;;;;5030257;28;20549;-61
2022/09/18 11:46:58;;;;;;;4.18;2.00;;;;;;;;;;5029335;28;20041;-61
2022/09/18 11:49:31;;;;;;;6.88;2.50;;;;;;;;;;5029960;28;20037;-61
2022/09/18 11:52:02;;;;;;;4.78;2.15;;;;;;;;;;5029341;28;20495;-61
2022/09/18 11:54:56;;;;;;;3.88;1.50;;;;;;;;;;5030280;28;20025;-61
2022/09/18 11:57:40;;;;;;;2.90;2.00;;;;;;;;;;5030264;28;20091;-61
2022/09/18 12:00:12;;;;;;;6.75;2.42;;;;;;;;;;5022230;28;20483;-61
2022/09/18 12:03:10;;;;;;;4.60;1.60;;;;;;;;;;5029256;28;20029;-61
2022/09/18 12:05:38;;;;;;;3.55;1.40;;;;;;;;;;5029259;28;20049;-61
2022/09/18 12:08:20;;;;;;;4.70;1.38;;;;;;;;;;5028476;28;20029;-61
2022/09/18 12:10:49;;;;;;;2.28;1.52;;;;;;;;;;5028016;28;20099;-61
2022/09/18 12:13:36;;;;;;;3.80;1.30;;;;;;;;;;5029555;28;20022;-61
2022/09/18 12:16:08;;;;;;;4.20;1.42;;;;;;;;;;5028854;28;20048;-61
2022/09/18 12:18:45;;;;;;;3.28;1.67;;;;;;;;;;5029102;28;20114;-61
2022/09/18 12:21:16;;;;;;;5.05;1.67;;;;;;;;;;5028682;28;20522;-61
2022/09/18 12:23:41;;;;;;;4.85;1.52;;;;;;;;;;5027341;28;20466;-61
2022/09/18 12:26:13;;;;;;;4.90;1.90;;;;;;;;;;5028534;28;20116;-61
2022/09/18 12:29:10;;;;;;;9.07;1.80;;;;;;;;;;5028923;28;20128;-60
2022/09/18 12:31:50;;;;;;;4.93;1.80;;;;;;;;;;5025430;28;20033;-60
2022/09/18 12:34:42;;;;;;;6.25;1.95;;;;;;;;;;5028911;28;20141;-59
2022/09/18 12:37:19;;;;;;;3.30;1.40;;;;;;;;;;5039654;28;20045;-60
2022/09/18 12:40:16;;;;;;;3.08;1.50;;;;;;;;;;5029489;28;20036;-60
2022/09/18 12:43:22;;;;;;;4.57;1.48;;;;;;;;;;5029235;28;20437;-60
2022/09/18 12:46:13;;;;;;;3.83;1.60;;;;;;;;;;5026530;28;20475;-60
2022/09/18 12:48:50;;;;;;;2.97;1.52;;;;;;;;;;5028625;28;20041;-60
2022/09/18 12:51:44;;;;;;;8.98;1.75;;;;;;;;;;5023454;28;20018;-60
2022/09/18 12:54:47;;;;;;;4.10;1.88;;;;;;;;;;5028950;28;20104;-60
2022/09/18 12:57:26;;;;;;;8.85;3.45;;;;;;;;;;5029156;28;20036;-60
2022/09/18 13:00:08;;;;;;;4.85;1.60;;;;;;;;;;5028820;28;20487;-60
2022/09/18 13:02:54;;;;;;;4.57;2.00;;;;;;;;;;5028313;28;20057;-60
2022/09/18 13:05:32;;;;;;;3.97;1.63;;;;;;;;;;5027999;28;20046;-60
2022/09/18 13:08:15;;;;;;;5.47;1.40;;;;;;;;;;5029484;28;20491;-60
2022/09/18 13:10:43;;;;;;;5.20;1.40;;;;;;;;;;5027404;28;20029;-60
2022/09/18 13:13:20;;;;;;;4.65;2.13;;;;;;;;;;5028284;28;20730;-60
2022/09/18 13:15:51;;;;;;;3.83;1.50;;;;;;;;;;5027948;28;20030;-60
2022/09/18 13:18:33;;;;;;;4.05;1.92;;;;;;;;;;5029335;28;20021;-60
2022/09/18 13:21:03;;;;;;;3.75;1.83;;;;;;;;;;5020947;28;20022;-60
2022/09/18 13:23:39;;;;;;;4.70;1.80;;;;;;;;;;5027967;28;20075;-60
2022/09/18 13:26:13;;;;;;;5.35;1.80;;;;;;;;;;5026643;28;20450;-60
2022/09/18 13:28:41;;;;;;;6.97;1.60;;;;;;;;;;5026187;28;20537;-60
2022/09/18 13:31:23;;;;;;;4.65;1.98;;;;;;;;;;5028901;28;20033;-60
2022/09/18 13:33:49;;;;;;;3.72;1.77;;;;;;;;;;5031265;28;20037;-60
2022/09/18 13:36:22;;;;;;;3.05;1.80;;;;;;;;;;5032421;28;20021;-60
2022/09/18 13:38:49;;;;;;;5.35;2.08;;;;;;;;;;5033456;28;20104;-60
2022/09/18 13:41:16;;;;;;;6.28;1.40;;;;;;;;;;5033548;28;20037;-60
2022/09/18 13:43:52;;;;;;;4.30;1.50;;;;;;;;;;5032134;28;20037;-61
2022/09/18 13:46:31;;;;;;;5.20;1.85;;;;;;;;;;5026523;28;20041;-60
2022/09/18 13:48:59;;;;;;;3.80;2.28;;;;;;;;;;5032536;28;20032;-60
2022/09/18 13:51:27;;;;;;;6.55;2.00;;;;;;;;;;5032888;28;20464;-60
2022/09/18 13:54:17;;;;;;;2.25;1.55;;;;;;;;;;5031972;28;20043;-60
2022/09/18 13:57:08;;;;;;;;;;;;;;;;;;5032552;28;20056;-60
2022/09/18 13:59:48;;;;;;;3.17;1.50;;;;;;;;;;5032609;28;19919;-60
2022/09/18 14:02:36;;;;;;;5.78;2.67;;;;;;;;;;5030065;28;20025;-60
2022/09/18 14:05:04;;;;;;;4.15;1.75;;;;;;;;;;5028330;28;20025;-60
2022/09/18 14:07:29;;;;;;;3.65;1.55;;;;;;;;;;5032006;28;20336;-60
2022/09/18 14:10:00;;;;;;;2.33;1.38;;;;;;;;;;5031551;28;20037;-60
2022/09/18 14:12:28;;;;;;;3.35;1.50;;;;;;;;;;5030842;28;20040;-60
2022/09/18 14:15:15;;;;;;;1.90;1.40;;;;;;;;;;5031958;28;20162;-60
2022/09/18 14:17:40;;;;;;;2.38;1.80;;;;;;;;;;5032215;28;20025;-60
2022/09/18 14:20:21;;;;;;;5.38;1.77;;;;;;;;;;5031845;28;20040;-60
2022/09/18 14:22:46;;;;;;;4.45;1.75;;;;;;;;;;5030940;28;20033;-60
2022/09/18 14:25:13;;;;;;;2.72;1.58;;;;;;;;;;5029962;28;20083;-60
2022/09/18 14:27:42;;;;;;;4.15;1.80;;;;;;;;;;5032003;28;20021;-60
2022/09/18 14:30:28;;;;;;;4.18;1.75;;;;;;;;;;5031140;28;20029;-60
2022/09/18 14:33:00;;;;;;;4.05;1.80;;;;;;;;;;5030412;28;20219;-60
2022/09/18 14:35:32;;;;;;;5.32;1.90;;;;;;;;;;5028110;28;20151;-60
2022/09/18 14:37:58;;;;;;;3.22;2.00;;;;;;;;;;5032679;28;20017;-60
2022/09/18 14:40:26;;;;;;;3.22;2.05;;;;;;;;;;5031569;28;20316;-60
2022/09/18 14:42:52;;;;;;;3.70;1.88;;;;;;;;;;5030909;28;20460;-60
2022/09/18 14:45:28;;;;;;;3.25;2.38;;;;;;;;;;5030414;28;20116;-60
2022/09/18 14:47:54;;;;;;;2.90;1.98;;;;;;;;;;5021603;28;20029;-60
2022/09/18 14:50:20;;;;;;;3.80;1.80;;;;;;;;;;5031587;28;20527;-60
2022/09/18 14:52:45;;;;;;;4.55;1.65;;;;;;;;;;5030230;28;20036;-60
2022/09/18 14:55:18;;;;;;;3.85;1.70;;;;;;;;;;5029998;28;20029;-60
2022/09/18 14:57:49;;;;;;;4.60;2.00;;;;;;;;;;5030928;28;20487;-60
2022/09/18 15:00:21;;;;;;;3.55;1.83;;;;;;;;;;5031258;28;20029;-60
2022/09/18 15:02:52;;;;;;;5.03;1.95;;;;;;;;;;5030341;28;20032;-60
2022/09/18 15:05:20;;;;;;;3.28;1.33;;;;;;;;;;5030425;28;20044;-60
2022/09/18 15:08:07;;;;;;;6.00;2.28;;;;;;;;;;5030829;28;20029;-60
2022/09/18 15:10:35;;;;;;;6.47;3.40;;;;;;;;;;5028518;28;20491;-60